Time;durP1;ratioP1;P1;durP2;ratioP2;P2;SDS_P1;SDS_P2;PMS_P1;PMS_P2;Temp;Humidity;BMP_temperature;BMP_pressure;BME280_temperature;BME280_humidity;BME280_pressure;Samples;Min_cycle;Max_cycle;Signal;HPM_P1;HPM_P2
2024/04/05 00:02:46;;;;;;;0.55;0.38;;;;;;;;;;5875284;28;20099;-67
2024/04/05 00:05:36;;;;;;;1.05;0.63;;;;;;;;;;5864886;28;20099;-67
2024/04/05 00:08:26;;;;;;;1.80;0.30;;;;;;;;;;5847762;28;20053;-67
2024/04/05 00:11:16;;;;;;;0.30;0.30;;;;;;;;;;5864551;28;20045;-66
2024/04/05 00:14:06;;;;;;;0.38;0.30;;;;;;;;;;5863954;28;20095;-67
2024/04/05 00:16:56;;;;;;;3.30;0.90;;;;;;;;;;5865047;28;20053;-67
2024/04/05 00:19:45;;;;;;;0.30;0.30;;;;;;;;;;5863726;28;20499;-67
2024/04/05 00:22:35;;;;;;;0.57;0.40;;;;;;;;;;5870862;28;20064;-66
2024/04/05 00:25:25;;;;;;;0.20;0.20;;;;;;;;;;5867112;28;20061;-67
2024/04/05 00:28:15;;;;;;;0.32;0.32;;;;;;;;;;5863828;28;20054;-66
2024/04/05 00:31:05;;;;;;;1.75;0.80;;;;;;;;;;5863834;28;20053;-67
2024/04/05 00:33:54;;;;;;;0.43;0.43;;;;;;;;;;5880514;28;20589;-67
2024/04/05 00:36:44;;;;;;;0.40;0.40;;;;;;;;;;5887284;28;20323;-67
2024/04/05 00:39:34;;;;;;;1.63;0.57;;;;;;;;;;5880075;28;20400;-67
2024/04/05 00:42:23;;;;;;;2.78;1.15;;;;;;;;;;5867187;28;20094;-67
2024/04/05 00:45:13;;;;;;;2.97;0.82;;;;;;;;;;5886904;28;20057;-67
2024/04/05 00:48:05;;;;;;;3.17;0.85;;;;;;;;;;5886117;28;20518;-66
2024/04/05 00:50:56;;;;;;;0.55;0.43;;;;;;;;;;5887120;28;20056;-67
2024/04/05 00:53:47;;;;;;;0.65;0.65;;;;;;;;;;5869779;28;20056;-67
2024/04/05 00:56:36;;;;;;;0.73;0.50;;;;;;;;;;5886836;28;20060;-67
2024/04/05 00:59:27;;;;;;;0.30;0.30;;;;;;;;;;5886256;28;20041;-67
2024/04/05 01:02:17;;;;;;;2.75;0.73;;;;;;;;;;5885524;28;20095;-67
2024/04/05 01:05:07;;;;;;;0.70;0.52;;;;;;;;;;5862307;28;20045;-67
2024/04/05 01:07:57;;;;;;;0.50;0.50;;;;;;;;;;5863949;28;20053;-67
2024/04/05 01:10:46;;;;;;;1.20;1.10;;;;;;;;;;5862786;28;20053;-67
2024/04/05 01:13:36;;;;;;;0.77;0.60;;;;;;;;;;5872041;28;20170;-67
2024/04/05 01:16:26;;;;;;;0.75;0.50;;;;;;;;;;5886145;28;20049;-67
2024/04/05 01:19:17;;;;;;;0.70;0.60;;;;;;;;;;5874423;28;20072;-67
2024/04/05 01:22:11;;;;;;;1.58;0.80;;;;;;;;;;5863018;28;20070;-67
2024/04/05 01:25:01;;;;;;;0.45;0.45;;;;;;;;;;5858152;28;20053;-67
2024/04/05 01:27:50;;;;;;;1.42;1.02;;;;;;;;;;5863204;28;20053;-67
2024/04/05 01:30:40;;;;;;;0.80;0.50;;;;;;;;;;5884624;28;20095;-67
2024/04/05 01:33:30;;;;;;;0.82;0.60;;;;;;;;;;5881582;28;20129;-67
2024/04/05 01:36:20;;;;;;;0.57;0.57;;;;;;;;;;5885824;28;20044;-67
2024/04/05 01:39:10;;;;;;;0.50;0.50;;;;;;;;;;5868929;28;20081;-67
2024/04/05 01:41:59;;;;;;;2.58;0.70;;;;;;;;;;5886175;28;20453;-67
2024/04/05 01:44:49;;;;;;;1.00;0.93;;;;;;;;;;5877796;28;20056;-67
2024/04/05 01:47:39;;;;;;;0.40;0.40;;;;;;;;;;5862676;28;20052;-67
2024/04/05 01:50:29;;;;;;;3.92;1.25;;;;;;;;;;5878142;28;20407;-67
2024/04/05 01:53:19;;;;;;;0.88;0.60;;;;;;;;;;5861806;28;20041;-67
2024/04/05 01:56:08;;;;;;;4.00;1.38;;;;;;;;;;5861765;28;20041;-67
2024/04/05 01:58:58;;;;;;;0.57;0.57;;;;;;;;;;5845984;28;20041;-67
2024/04/05 02:01:48;;;;;;;1.13;0.73;;;;;;;;;;5861734;28;20368;-67
2024/04/05 02:04:38;;;;;;;7.20;0.63;;;;;;;;;;5860665;28;20128;-67
2024/04/05 02:07:27;;;;;;;2.90;1.02;;;;;;;;;;5861894;28;20495;-67
2024/04/05 02:10:17;;;;;;;0.98;0.85;;;;;;;;;;5861539;28;20128;-67
2024/04/05 02:13:08;;;;;;;0.68;0.55;;;;;;;;;;5862299;28;20107;-67
2024/04/05 02:15:57;;;;;;;1.25;1.15;;;;;;;;;;5885389;28;20053;-67
2024/04/05 02:18:47;;;;;;;1.33;1.00;;;;;;;;;;5884107;28;20526;-67
2024/04/05 02:21:37;;;;;;;1.20;1.02;;;;;;;;;;5884926;28;20123;-67
2024/04/05 02:24:27;;;;;;;1.13;1.02;;;;;;;;;;5867618;28;20049;-67
2024/04/05 02:27:17;;;;;;;3.55;0.80;;;;;;;;;;5885005;28;20095;-67
2024/04/05 02:30:07;;;;;;;0.88;0.63;;;;;;;;;;5884303;28;20453;-67
2024/04/05 02:32:57;;;;;;;3.05;1.15;;;;;;;;;;5884619;28;20494;-67
2024/04/05 02:35:46;;;;;;;0.70;0.57;;;;;;;;;;5877386;28;20419;-67
2024/04/05 02:38:36;;;;;;;2.65;1.30;;;;;;;;;;5866247;28;20052;-67
2024/04/05 02:41:26;;;;;;;2.13;0.65;;;;;;;;;;5884681;28;20815;-67
2024/04/05 02:44:16;;;;;;;0.57;0.40;;;;;;;;;;5883897;28;20114;-67
2024/04/05 02:47:08;;;;;;;0.65;0.65;;;;;;;;;;5884703;28;20123;-67
2024/04/05 02:49:57;;;;;;;1.17;0.63;;;;;;;;;;5884164;28;20474;-67
2024/04/05 02:52:47;;;;;;;0.85;0.70;;;;;;;;;;5884473;28;20403;-67
2024/04/05 02:55:37;;;;;;;0.90;0.77;;;;;;;;;;5867138;28;20102;-67
2024/04/05 02:58:26;;;;;;;0.75;0.75;;;;;;;;;;5887733;28;20044;-67
2024/04/05 03:01:16;;;;;;;2.28;1.25;;;;;;;;;;5888948;28;20063;-67
2024/04/05 03:04:07;;;;;;;1.05;0.80;;;;;;;;;;5885927;28;20418;-67
2024/04/05 03:06:57;;;;;;;5.20;1.33;;;;;;;;;;5889228;28;20115;-67
2024/04/05 03:09:47;;;;;;;0.52;0.52;;;;;;;;;;5888075;28;20049;-67
2024/04/05 03:12:36;;;;;;;3.47;1.25;;;;;;;;;;5870393;28;20048;-67
2024/04/05 03:15:26;;;;;;;0.35;0.35;;;;;;;;;;5885331;28;20812;-67
2024/04/05 03:18:16;;;;;;;0.68;0.68;;;;;;;;;;5885577;28;20045;-67
2024/04/05 03:21:06;;;;;;;4.20;0.80;;;;;;;;;;5902327;28;20057;-67
2024/04/05 03:23:56;;;;;;;1.15;0.85;;;;;;;;;;5886203;28;20049;-67
2024/04/05 03:26:45;;;;;;;0.55;0.55;;;;;;;;;;5885557;28;20056;-67
2024/04/05 03:29:35;;;;;;;4.00;0.90;;;;;;;;;;5885062;28;20056;-67
2024/04/05 03:32:25;;;;;;;2.80;0.95;;;;;;;;;;5887474;28;20114;-67
2024/04/05 03:35:15;;;;;;;1.45;0.95;;;;;;;;;;5887450;28;20045;-67
2024/04/05 03:38:04;;;;;;;1.60;1.30;;;;;;;;;;5903412;28;20084;-67
2024/04/05 03:40:54;;;;;;;15.35;1.33;;;;;;;;;;5904362;28;20049;-67
2024/04/05 03:43:44;;;;;;;0.80;0.80;;;;;;;;;;5887617;28;20045;-67
2024/04/05 03:46:37;;;;;;;0.85;0.68;;;;;;;;;;5887585;28;20045;-67
2024/04/05 03:49:30;;;;;;;1.67;0.75;;;;;;;;;;5887325;28;20052;-67
2024/04/05 03:52:20;;;;;;;3.40;1.27;;;;;;;;;;5887120;28;20041;-67
2024/04/05 03:55:09;;;;;;;1.27;0.55;;;;;;;;;;5886926;28;20469;-67
2024/04/05 03:57:59;;;;;;;0.68;0.68;;;;;;;;;;5887531;28;20048;-67
2024/04/05 04:00:51;;;;;;;1.35;0.88;;;;;;;;;;5886987;28;20045;-67
2024/04/05 04:03:40;;;;;;;1.55;1.23;;;;;;;;;;5887139;28;20115;-67
2024/04/05 04:06:30;;;;;;;4.80;0.82;;;;;;;;;;5886916;28;20057;-67
2024/04/05 04:09:20;;;;;;;1.83;1.15;;;;;;;;;;5886710;28;20119;-67
2024/04/05 04:12:10;;;;;;;1.35;0.75;;;;;;;;;;5903467;28;20053;-67
2024/04/05 04:15:00;;;;;;;0.80;0.65;;;;;;;;;;5887312;28;20053;-67
2024/04/05 04:17:50;;;;;;;0.63;0.63;;;;;;;;;;5886642;28;20051;-67
2024/04/05 04:20:40;;;;;;;0.55;0.55;;;;;;;;;;5886576;28;20045;-67
2024/04/05 04:23:30;;;;;;;1.13;1.02;;;;;;;;;;5870249;28;20107;-67
2024/04/05 04:26:20;;;;;;;0.93;0.82;;;;;;;;;;5886314;28;20060;-67
2024/04/05 04:29:10;;;;;;;2.30;0.82;;;;;;;;;;5886546;28;20091;-67
2024/04/05 04:31:59;;;;;;;0.70;0.70;;;;;;;;;;5886737;28;20056;-67
2024/04/05 04:34:50;;;;;;;2.17;0.90;;;;;;;;;;5886195;28;20044;-67
2024/04/05 04:37:40;;;;;;;3.50;1.15;;;;;;;;;;5886294;28;20048;-67
2024/04/05 04:40:30;;;;;;;1.83;1.02;;;;;;;;;;5886323;28;20091;-67
2024/04/05 04:43:20;;;;;;;2.67;1.13;;;;;;;;;;5886059;28;20060;-67
2024/04/05 04:46:11;;;;;;;1.65;0.88;;;;;;;;;;5885991;28;20419;-67
2024/04/05 04:49:01;;;;;;;1.70;1.25;;;;;;;;;;5886018;28;20509;-67
2024/04/05 04:51:51;;;;;;;1.13;0.88;;;;;;;;;;5870050;28;20095;-67
2024/04/05 04:54:41;;;;;;;0.85;0.85;;;;;;;;;;5885749;28;20044;-67
2024/04/05 04:57:32;;;;;;;0.80;0.80;;;;;;;;;;5885864;28;20453;-67
2024/04/05 05:00:22;;;;;;;1.25;0.70;;;;;;;;;;5885745;28;20041;-67
2024/04/05 05:03:12;;;;;;;0.82;0.77;;;;;;;;;;5885768;28;20083;-67
2024/04/05 05:06:02;;;;;;;0.45;0.45;;;;;;;;;;5885797;28;20055;-67
2024/04/05 05:08:52;;;;;;;4.60;1.05;;;;;;;;;;5886209;28;20570;-67
2024/04/05 05:11:42;;;;;;;2.15;0.85;;;;;;;;;;5885583;28;20060;-67
2024/04/05 05:14:32;;;;;;;0.47;0.40;;;;;;;;;;5885564;28;20410;-67
2024/04/05 05:17:22;;;;;;;0.68;0.60;;;;;;;;;;5885524;28;20071;-67
2024/04/05 05:20:16;;;;;;;1.70;0.70;;;;;;;;;;5884646;28;20465;-67
2024/04/05 05:23:06;;;;;;;0.20;0.20;;;;;;;;;;5885339;28;20459;-67
2024/04/05 05:25:57;;;;;;;1.60;0.80;;;;;;;;;;5885993;28;20477;-67
2024/04/05 05:28:47;;;;;;;2.05;0.68;;;;;;;;;;5885304;28;20048;-67
2024/04/05 05:31:37;;;;;;;1.13;0.98;;;;;;;;;;5885057;28;20059;-67
2024/04/05 05:34:27;;;;;;;0.98;0.80;;;;;;;;;;5885037;28;20041;-67
2024/04/05 05:37:17;;;;;;;1.45;1.13;;;;;;;;;;5885209;28;20136;-67
2024/04/05 05:40:07;;;;;;;1.80;1.50;;;;;;;;;;5885138;28;20127;-67
2024/04/05 05:42:57;;;;;;;0.80;0.70;;;;;;;;;;5885810;28;20547;-67
2024/04/05 05:45:47;;;;;;;2.60;1.42;;;;;;;;;;5884462;28;20497;-67
2024/04/05 05:48:37;;;;;;;1.48;0.82;;;;;;;;;;5884739;28;20049;-67
2024/04/05 05:51:26;;;;;;;5.18;0.80;;;;;;;;;;5884681;28;20053;-67
2024/04/05 05:54:19;;;;;;;0.95;0.85;;;;;;;;;;5884560;28;20049;-67
2024/04/05 05:57:09;;;;;;;1.05;0.60;;;;;;;;;;5884448;28;20048;-67
2024/04/05 05:59:58;;;;;;;5.50;1.38;;;;;;;;;;5885091;28;20044;-68
2024/04/05 06:02:48;;;;;;;0.75;0.75;;;;;;;;;;5884470;28;20083;-67
2024/04/05 06:05:38;;;;;;;6.10;1.20;;;;;;;;;;5884436;28;20152;-67
2024/04/05 06:08:29;;;;;;;2.33;1.75;;;;;;;;;;5884576;28;20044;-67
2024/04/05 06:11:19;;;;;;;1.20;1.10;;;;;;;;;;5884234;28;20044;-67
2024/04/05 06:14:08;;;;;;;3.83;1.20;;;;;;;;;;5884594;28;20127;-67
2024/04/05 06:16:58;;;;;;;3.45;1.77;;;;;;;;;;5884870;28;20086;-67
2024/04/05 06:19:55;;;;;;;0.88;0.82;;;;;;;;;;5884187;28;20056;-67
2024/04/05 06:22:44;;;;;;;2.85;1.23;;;;;;;;;;5884261;28;20059;-67
2024/04/05 06:25:34;;;;;;;1.13;0.95;;;;;;;;;;5884163;28;20446;-67
2024/04/05 06:28:25;;;;;;;2.42;1.48;;;;;;;;;;5884537;28;20049;-67
2024/04/05 06:31:17;;;;;;;2.28;1.25;;;;;;;;;;5883911;28;20057;-67
2024/04/05 06:34:07;;;;;;;1.35;0.82;;;;;;;;;;5884103;28;20049;-67
2024/04/05 06:36:56;;;;;;;2.97;1.58;;;;;;;;;;5884641;28;20045;-67
2024/04/05 06:39:46;;;;;;;0.77;0.73;;;;;;;;;;5884312;28;20052;-67
2024/04/05 06:42:36;;;;;;;1.85;0.90;;;;;;;;;;5884020;28;20441;-67
2024/04/05 06:45:26;;;;;;;1.55;1.30;;;;;;;;;;5884063;28;20049;-67
2024/04/05 06:48:16;;;;;;;10.30;1.80;;;;;;;;;;5884089;28;20045;-68
2024/04/05 06:51:13;;;;;;;2.40;1.10;;;;;;;;;;5867485;28;20041;-67
2024/04/05 06:54:03;;;;;;;2.60;1.77;;;;;;;;;;5874310;28;20453;-67
2024/04/05 06:56:53;;;;;;;1.13;1.02;;;;;;;;;;5868491;28;20052;-67
2024/04/05 06:59:43;;;;;;;2.65;1.50;;;;;;;;;;5883666;28;20056;-67
2024/04/05 07:02:32;;;;;;;1.17;0.93;;;;;;;;;;5884001;28;20103;-67
2024/04/05 07:05:22;;;;;;;1.20;1.10;;;;;;;;;;5883950;28;20049;-67
2024/04/05 07:08:12;;;;;;;1.92;1.05;;;;;;;;;;5884198;28;20053;-67
2024/04/05 07:11:02;;;;;;;1.88;1.48;;;;;;;;;;5883970;28;20501;-67
2024/04/05 07:13:52;;;;;;;3.83;1.30;;;;;;;;;;5884250;28;20068;-67
2024/04/05 07:16:43;;;;;;;0.70;0.70;;;;;;;;;;5883779;28;20053;-67
2024/04/05 07:19:32;;;;;;;0.88;0.68;;;;;;;;;;5883679;28;20049;-68
2024/04/05 07:22:22;;;;;;;6.97;1.35;;;;;;;;;;5883942;28;20064;-68
2024/04/05 07:25:13;;;;;;;2.05;1.33;;;;;;;;;;5883708;28;20053;-68
2024/04/05 07:28:03;;;;;;;1.88;0.73;;;;;;;;;;5900233;28;20048;-68
2024/04/05 07:30:53;;;;;;;2.72;1.23;;;;;;;;;;5884176;28;20045;-68
2024/04/05 07:33:43;;;;;;;1.17;0.70;;;;;;;;;;5883576;28;20060;-68
2024/04/05 07:36:33;;;;;;;1.02;0.55;;;;;;;;;;5866938;28;20127;-68
2024/04/05 07:39:23;;;;;;;5.70;1.30;;;;;;;;;;5883349;28;20045;-68
2024/04/05 07:42:13;;;;;;;1.85;0.98;;;;;;;;;;5883426;28;20107;-68
2024/04/05 07:45:03;;;;;;;3.67;1.30;;;;;;;;;;5887618;28;20044;-67
2024/04/05 07:47:53;;;;;;;2.22;1.02;;;;;;;;;;5888268;28;20045;-67
2024/04/05 07:50:43;;;;;;;0.90;0.80;;;;;;;;;;5887474;28;20060;-68
2024/04/05 07:53:32;;;;;;;3.38;1.88;;;;;;;;;;5887811;28;20041;-68
2024/04/05 07:56:22;;;;;;;1.55;0.88;;;;;;;;;;5887575;28;20440;-68
2024/04/05 07:59:12;;;;;;;3.33;1.67;;;;;;;;;;5887404;28;20049;-68
2024/04/05 08:02:02;;;;;;;3.65;1.48;;;;;;;;;;5887629;28;20048;-67
2024/04/05 08:04:52;;;;;;;9.93;1.52;;;;;;;;;;5887929;28;20455;-68
2024/04/05 08:07:42;;;;;;;1.42;0.73;;;;;;;;;;5887351;28;20127;-68
2024/04/05 08:10:32;;;;;;;0.90;0.63;;;;;;;;;;5887456;28;20144;-68
2024/04/05 08:13:21;;;;;;;1.23;1.13;;;;;;;;;;5870654;28;20452;-68
2024/04/05 08:16:11;;;;;;;0.88;0.57;;;;;;;;;;5886976;28;20049;-68
2024/04/05 08:19:01;;;;;;;3.97;1.05;;;;;;;;;;5887248;28;20053;-68
2024/04/05 08:21:51;;;;;;;1.13;0.70;;;;;;;;;;5870905;28;20049;-68
2024/04/05 08:24:41;;;;;;;2.03;0.73;;;;;;;;;;5886796;28;20105;-68
2024/04/05 08:27:31;;;;;;;2.15;0.80;;;;;;;;;;5886873;28;20044;-68
2024/04/05 08:30:21;;;;;;;0.80;0.65;;;;;;;;;;5886838;28;20697;-68
2024/04/05 08:33:11;;;;;;;1.45;0.88;;;;;;;;;;5886813;28;20053;-68
2024/04/05 08:36:02;;;;;;;3.45;0.98;;;;;;;;;;5870356;28;20049;-67
2024/04/05 08:38:52;;;;;;;0.40;0.40;;;;;;;;;;5887189;28;20483;-68
2024/04/05 08:41:45;;;;;;;3.10;1.50;;;;;;;;;;5886630;28;20052;-68
2024/04/05 08:44:36;;;;;;;1.15;0.47;;;;;;;;;;5886653;28;20056;-67
2024/04/05 08:47:26;;;;;;;1.40;0.88;;;;;;;;;;5870155;28;20044;-68
2024/04/05 08:50:17;;;;;;;2.13;1.17;;;;;;;;;;5862564;28;20041;-67
2024/04/05 08:53:08;;;;;;;5.45;0.85;;;;;;;;;;5880440;28;20548;-67
2024/04/05 08:55:59;;;;;;;0.75;0.43;;;;;;;;;;5870129;28;20064;-68
2024/04/05 08:58:52;;;;;;;0.60;0.45;;;;;;;;;;5902703;28;20045;-68
2024/04/05 09:01:47;;;;;;;0.85;0.55;;;;;;;;;;5869685;28;20052;-68
2024/04/05 09:04:37;;;;;;;0.20;0.20;;;;;;;;;;5885819;28;20045;-67
2024/04/05 09:07:27;;;;;;;8.68;0.90;;;;;;;;;;5869497;28;20156;-68
2024/04/05 09:10:16;;;;;;;4.43;0.93;;;;;;;;;;5869368;28;20056;-68
2024/04/05 09:13:06;;;;;;;6.82;1.17;;;;;;;;;;5902423;28;20056;-67
2024/04/05 09:15:56;;;;;;;1.60;0.85;;;;;;;;;;5886182;28;20052;-67
2024/04/05 09:18:46;;;;;;;0.50;0.43;;;;;;;;;;5885857;28;20057;-67
2024/04/05 09:21:43;;;;;;;2.03;0.90;;;;;;;;;;5885525;28;20422;-68
2024/04/05 09:24:34;;;;;;;1.55;0.45;;;;;;;;;;5885403;28;20513;-68
2024/04/05 09:27:24;;;;;;;3.10;1.17;;;;;;;;;;5852754;28;20064;-67
2024/04/05 09:30:15;;;;;;;1.95;0.68;;;;;;;;;;5885284;28;20053;-68
2024/04/05 09:33:05;;;;;;;2.65;1.13;;;;;;;;;;5885420;28;20535;-68
2024/04/05 09:35:56;;;;;;;13.57;1.27;;;;;;;;;;5885879;28;20430;-68
2024/04/05 09:38:47;;;;;;;19.48;1.27;;;;;;;;;;5885381;28;20518;-68
2024/04/05 09:41:37;;;;;;;2.80;1.35;;;;;;;;;;5885212;28;20048;-68
2024/04/05 09:44:27;;;;;;;2.63;0.82;;;;;;;;;;5868591;28;20052;-68
2024/04/05 09:47:20;;;;;;;0.93;0.30;;;;;;;;;;5868860;28;20071;-68
2024/04/05 09:50:09;;;;;;;3.17;0.70;;;;;;;;;;5901510;28;20049;-68
2024/04/05 09:53:03;;;;;;;5.05;1.73;;;;;;;;;;5869140;28;20099;-68
2024/04/05 09:55:57;;;;;;;2.65;1.13;;;;;;;;;;5869211;28;20455;-67
2024/04/05 09:58:48;;;;;;;2.85;1.20;;;;;;;;;;5868594;28;20052;-68
2024/04/05 10:01:41;;;;;;;1.45;0.50;;;;;;;;;;5868252;28;20052;-67
2024/04/05 10:04:31;;;;;;;1.67;0.90;;;;;;;;;;5884777;28;20414;-67
2024/04/05 10:07:27;;;;;;;1.83;0.57;;;;;;;;;;5884373;28;20057;-67
2024/04/05 10:10:32;;;;;;;2.58;1.13;;;;;;;;;;5884932;28;20061;-68
2024/04/05 10:13:25;;;;;;;0.77;0.65;;;;;;;;;;5884704;28;20738;-67
2024/04/05 10:16:23;;;;;;;2.80;0.93;;;;;;;;;;5884533;28;20057;-67
2024/04/05 10:19:15;;;;;;;1.65;0.88;;;;;;;;;;5884829;28;20170;-67
2024/04/05 10:22:08;;;;;;;1.65;0.93;;;;;;;;;;5884590;28;20052;-68
2024/04/05 10:24:58;;;;;;;1.90;1.33;;;;;;;;;;5885262;28;20041;-68
2024/04/05 10:27:53;;;;;;;2.83;1.20;;;;;;;;;;5884445;28;20067;-68
2024/04/05 10:30:43;;;;;;;0.30;0.30;;;;;;;;;;5884594;28;20493;-68
2024/04/05 10:33:35;;;;;;;5.90;0.90;;;;;;;;;;5884347;28;20465;-68
2024/04/05 10:36:26;;;;;;;1.20;0.63;;;;;;;;;;5884335;28;20045;-67
2024/04/05 10:39:18;;;;;;;1.35;0.82;;;;;;;;;;5868246;28;20071;-68
2024/04/05 10:42:08;;;;;;;1.50;0.60;;;;;;;;;;5884322;28;20048;-68
2024/04/05 10:44:58;;;;;;;0.60;0.40;;;;;;;;;;5884999;28;20097;-68
2024/04/05 10:47:54;;;;;;;1.00;0.52;;;;;;;;;;5884120;28;20049;-68
2024/04/05 10:50:44;;;;;;;5.88;0.50;;;;;;;;;;5884301;28;20053;-68
2024/04/05 10:53:33;;;;;;;3.22;1.05;;;;;;;;;;5884226;28;20052;-68
2024/04/05 10:56:24;;;;;;;2.17;0.85;;;;;;;;;;5884093;28;20075;-68
2024/04/05 10:59:18;;;;;;;2.45;1.10;;;;;;;;;;5884032;28;20053;-68
2024/04/05 11:02:08;;;;;;;0.43;0.32;;;;;;;;;;5884120;28;20477;-68
2024/04/05 11:05:14;;;;;;;0.60;0.52;;;;;;;;;;5884426;28;20056;-68
2024/04/05 11:08:05;;;;;;;3.95;0.68;;;;;;;;;;5883894;28;20059;-67
2024/04/05 11:11:20;;;;;;;8.48;1.73;;;;;;;;;;5885422;28;20502;-68
2024/04/05 11:14:10;;;;;;;1.17;0.63;;;;;;;;;;5883974;28;20040;-68
2024/04/05 11:17:00;;;;;;;4.47;1.27;;;;;;;;;;5884398;28;20045;-68
2024/04/05 11:19:50;;;;;;;0.95;0.77;;;;;;;;;;5888275;28;20468;-68
2024/04/05 11:22:41;;;;;;;1.05;0.55;;;;;;;;;;5888429;28;20045;-68
2024/04/05 11:25:34;;;;;;;1.23;0.63;;;;;;;;;;5888453;28;20045;-68
2024/04/05 11:28:24;;;;;;;0.98;0.63;;;;;;;;;;5881729;28;20053;-68
2024/04/05 11:31:15;;;;;;;1.20;0.70;;;;;;;;;;5888046;28;20044;-68
2024/04/05 11:34:05;;;;;;;0.35;0.35;;;;;;;;;;5871555;28;20045;-68
2024/04/05 11:36:55;;;;;;;2.97;0.80;;;;;;;;;;5888552;28;20045;-68
2024/04/05 11:39:44;;;;;;;0.40;0.40;;;;;;;;;;5888114;28;20045;-68
2024/04/05 11:42:34;;;;;;;16.83;1.20;;;;;;;;;;5887801;28;20102;-68
2024/04/05 11:45:24;;;;;;;0.57;0.40;;;;;;;;;;5887701;28;20128;-68
2024/04/05 11:48:14;;;;;;;1.30;0.60;;;;;;;;;;5886344;28;20057;-68
2024/04/05 11:51:07;;;;;;;1.90;0.82;;;;;;;;;;5887819;28;20045;-68
2024/04/05 11:53:57;;;;;;;0.68;0.50;;;;;;;;;;5888357;28;20110;-69
2024/04/05 11:56:47;;;;;;;5.18;1.35;;;;;;;;;;5887686;28;20049;-68
2024/04/05 11:59:36;;;;;;;0.47;0.40;;;;;;;;;;5863022;28;20502;-68
2024/04/05 12:02:29;;;;;;;0.32;0.32;;;;;;;;;;5887506;28;20052;-68
2024/04/05 12:05:21;;;;;;;0.50;0.50;;;;;;;;;;5887486;28;20053;-68
2024/04/05 12:08:12;;;;;;;0.50;0.50;;;;;;;;;;5886996;28;20087;-70
2024/04/05 12:11:02;;;;;;;0.68;0.68;;;;;;;;;;5875758;28;20046;-68
2024/04/05 12:13:51;;;;;;;3.55;0.68;;;;;;;;;;5864201;28;20056;-68
2024/04/05 12:16:41;;;;;;;0.63;0.38;;;;;;;;;;5864349;28;20454;-69
2024/04/05 12:19:31;;;;;;;5.60;0.90;;;;;;;;;;5864725;28;20053;-68
2024/04/05 12:22:21;;;;;;;1.40;0.68;;;;;;;;;;5863807;28;20511;-68
2024/04/05 12:25:11;;;;;;;1.48;0.63;;;;;;;;;;5863819;28;20077;-68
2024/04/05 12:28:02;;;;;;;0.65;0.32;;;;;;;;;;5864402;28;20125;-68
2024/04/05 12:30:51;;;;;;;8.15;1.42;;;;;;;;;;5864155;28;20443;-68
2024/04/05 12:33:42;;;;;;;2.60;0.60;;;;;;;;;;5878232;28;20140;-68
2024/04/05 12:36:32;;;;;;;0.75;0.68;;;;;;;;;;5875483;28;20053;-69
2024/04/05 12:39:25;;;;;;;1.10;0.90;;;;;;;;;;5864225;28;20056;-69
2024/04/05 12:42:15;;;;;;;0.35;0.35;;;;;;;;;;5862874;28;20057;-68
2024/04/05 12:45:08;;;;;;;0.30;0.30;;;;;;;;;;5862649;28;20053;-68
2024/04/05 12:47:57;;;;;;;4.53;1.92;;;;;;;;;;5863089;28;20056;-68
2024/04/05 12:50:57;;;;;;;7.20;3.08;;;;;;;;;;5863591;28;20050;-68
2024/04/05 12:53:47;;;;;;;2.47;1.02;;;;;;;;;;5862003;28;20056;-68
2024/04/05 12:56:37;;;;;;;7.90;0.63;;;;;;;;;;5862977;28;20049;-68
2024/04/05 12:59:26;;;;;;;0.30;0.30;;;;;;;;;;5847325;28;20132;-69
2024/04/05 13:02:19;;;;;;;4.10;0.80;;;;;;;;;;5863494;28;20049;-68
2024/04/05 13:05:09;;;;;;;4.88;2.10;;;;;;;;;;5863306;28;20050;-68
2024/04/05 13:07:59;;;;;;;0.52;0.43;;;;;;;;;;5864019;28;20504;-68
2024/04/05 13:10:57;;;;;;;1.67;0.40;;;;;;;;;;5862786;28;20041;-68
2024/04/05 13:13:47;;;;;;;0.47;0.32;;;;;;;;;;5862752;28;20120;-68
2024/04/05 13:16:37;;;;;;;8.07;3.42;;;;;;;;;;5861383;28;20041;-68
2024/04/05 13:19:26;;;;;;;4.13;0.82;;;;;;;;;;5862314;28;20049;-68
2024/04/05 13:22:18;;;;;;;1.85;1.08;;;;;;;;;;5862521;28;20518;-68
2024/04/05 13:25:09;;;;;;;1.83;0.70;;;;;;;;;;5862518;28;20049;-67
2024/04/05 13:27:59;;;;;;;0.32;0.32;;;;;;;;;;5862745;28;20106;-68
2024/04/05 13:30:58;;;;;;;9.35;0.70;;;;;;;;;;5862260;28;20050;-68
2024/04/05 13:33:49;;;;;;;1.08;0.35;;;;;;;;;;5861555;28;20414;-68
2024/04/05 13:36:38;;;;;;;0.47;0.30;;;;;;;;;;5878736;28;20049;-68
2024/04/05 13:39:28;;;;;;;1.35;0.43;;;;;;;;;;5845722;28;20045;-68
2024/04/05 13:42:18;;;;;;;0.70;0.60;;;;;;;;;;5861307;28;20415;-68
2024/04/05 13:45:08;;;;;;;3.60;1.05;;;;;;;;;;5845509;28;20069;-68
2024/04/05 13:47:57;;;;;;;2.70;0.95;;;;;;;;;;5862411;28;20099;-68
2024/04/05 13:50:47;;;;;;;5.32;1.25;;;;;;;;;;5861862;28;20052;-68
2024/04/05 13:53:38;;;;;;;4.68;1.05;;;;;;;;;;5861410;28;20049;-68
2024/04/05 13:56:28;;;;;;;26.48;1.73;;;;;;;;;;5861534;28;20053;-68
2024/04/05 13:59:17;;;;;;;2.97;0.70;;;;;;;;;;5861609;28;20111;-70
2024/04/05 14:02:08;;;;;;;2.20;0.65;;;;;;;;;;5861720;28;20227;-70
2024/04/05 14:05:00;;;;;;;1.17;0.85;;;;;;;;;;5860763;28;20045;-69
2024/04/05 14:07:50;;;;;;;0.47;0.35;;;;;;;;;;5861820;28;20049;-69
2024/04/05 14:10:42;;;;;;;2.22;0.65;;;;;;;;;;5861281;28;20049;-68
2024/04/05 14:13:32;;;;;;;0.93;0.40;;;;;;;;;;5861321;28;20041;-69
2024/04/05 14:16:22;;;;;;;1.00;0.55;;;;;;;;;;5861212;28;20052;-69
2024/04/05 14:19:13;;;;;;;2.28;1.05;;;;;;;;;;5861456;28;20045;-68
2024/04/05 14:22:03;;;;;;;3.85;0.88;;;;;;;;;;5845061;28;20057;-68
2024/04/05 14:24:53;;;;;;;5.55;1.17;;;;;;;;;;5862047;28;20129;-69
2024/04/05 14:27:43;;;;;;;7.60;0.98;;;;;;;;;;5861241;28;20415;-69
2024/04/05 14:30:33;;;;;;;4.40;1.15;;;;;;;;;;5860921;28;20041;-68
2024/04/05 14:33:23;;;;;;;14.70;1.38;;;;;;;;;;5861203;28;20060;-68
2024/04/05 14:36:13;;;;;;;7.78;1.08;;;;;;;;;;5844878;28;20049;-68
2024/04/05 14:39:03;;;;;;;0.82;0.43;;;;;;;;;;5861052;28;20049;-69
2024/04/05 14:41:53;;;;;;;0.50;0.30;;;;;;;;;;5861262;28;20057;-69
2024/04/05 14:44:46;;;;;;;1.75;0.70;;;;;;;;;;5861049;28;20045;-69
2024/04/05 14:47:36;;;;;;;0.15;0.10;;;;;;;;;;5844422;28;20440;-68
2024/04/05 14:50:26;;;;;;;1.60;0.85;;;;;;;;;;5860951;28;20064;-68
2024/04/05 14:53:16;;;;;;;0.85;0.40;;;;;;;;;;5864441;28;20049;-68
2024/04/05 14:56:07;;;;;;;3.60;0.50;;;;;;;;;;5865716;28;20658;-68
2024/04/05 14:58:57;;;;;;;2.15;0.55;;;;;;;;;;5866333;28;20506;-68
2024/04/05 15:01:48;;;;;;;5.03;1.25;;;;;;;;;;5865769;28;20053;-68
2024/04/05 15:04:38;;;;;;;1.92;0.57;;;;;;;;;;5849386;28;20065;-68
2024/04/05 15:07:28;;;;;;;2.85;2.10;;;;;;;;;;5865521;28;20699;-68
2024/04/05 15:10:17;;;;;;;1.90;0.98;;;;;;;;;;5865429;28;20397;-68
2024/04/05 15:13:07;;;;;;;1.02;0.73;;;;;;;;;;5881795;28;20065;-68
2024/04/05 15:15:57;;;;;;;2.30;0.98;;;;;;;;;;5865990;28;20626;-68
2024/04/05 15:18:47;;;;;;;3.22;0.93;;;;;;;;;;5865382;28;20134;-68
2024/04/05 15:21:37;;;;;;;1.23;0.93;;;;;;;;;;5865183;28;20049;-68
2024/04/05 15:24:26;;;;;;;2.55;1.25;;;;;;;;;;5848751;28;20053;-68
2024/04/05 15:27:16;;;;;;;5.40;1.35;;;;;;;;;;5865076;28;20111;-68
2024/04/05 15:30:07;;;;;;;3.88;1.10;;;;;;;;;;5865028;28;20095;-68
2024/04/05 15:32:56;;;;;;;2.28;1.20;;;;;;;;;;5865534;28;20574;-68
2024/04/05 15:36:00;;;;;;;1.67;1.05;;;;;;;;;;5864900;28;20148;-68
2024/04/05 15:38:49;;;;;;;2.45;1.40;;;;;;;;;;5881629;28;20045;-68
2024/04/05 15:41:39;;;;;;;3.33;2.08;;;;;;;;;;5864754;28;20503;-68
2024/04/05 15:44:29;;;;;;;2.60;1.58;;;;;;;;;;5864882;28;20529;-68
2024/04/05 15:47:19;;;;;;;1.77;1.27;;;;;;;;;;5864250;28;20442;-68
2024/04/05 15:50:09;;;;;;;0.45;0.40;;;;;;;;;;5864706;28;20061;-68
2024/04/05 15:52:58;;;;;;;8.15;1.58;;;;;;;;;;5864036;28;20115;-68
2024/04/05 15:55:48;;;;;;;3.47;1.40;;;;;;;;;;5864362;28;20060;-68
2024/04/05 15:58:38;;;;;;;0.57;0.57;;;;;;;;;;5864265;28;20055;-68
2024/04/05 16:01:29;;;;;;;3.58;1.42;;;;;;;;;;5848063;28;20042;-68
2024/04/05 16:04:19;;;;;;;3.70;1.42;;;;;;;;;;5846919;28;20506;-68
2024/04/05 16:07:08;;;;;;;0.70;0.70;;;;;;;;;;5864301;28;20049;-68
2024/04/05 16:09:58;;;;;;;2.25;0.82;;;;;;;;;;5864894;28;20128;-68
2024/04/05 16:12:52;;;;;;;4.65;2.75;;;;;;;;;;5863187;28;20049;-68
2024/04/05 16:15:42;;;;;;;3.53;2.00;;;;;;;;;;5886636;28;20041;-68
2024/04/05 16:18:33;;;;;;;6.15;1.40;;;;;;;;;;5902510;28;20726;-68
2024/04/05 16:21:23;;;;;;;4.03;0.93;;;;;;;;;;5886993;28;20046;-68
2024/04/05 16:24:13;;;;;;;3.38;1.73;;;;;;;;;;5886919;28;20099;-68
2024/04/05 16:27:03;;;;;;;2.58;1.27;;;;;;;;;;5886533;28;20452;-68
2024/04/05 16:29:53;;;;;;;5.07;2.45;;;;;;;;;;5887228;28;20052;-68
2024/04/05 16:32:44;;;;;;;6.15;2.97;;;;;;;;;;5886308;28;20049;-68
2024/04/05 16:35:34;;;;;;;10.32;4.00;;;;;;;;;;5886862;28;20044;-68
2024/04/05 16:38:26;;;;;;;9.95;3.20;;;;;;;;;;5886562;28;20069;-68
2024/04/05 16:41:18;;;;;;;2.45;1.10;;;;;;;;;;5870462;28;20053;-68
2024/04/05 16:44:07;;;;;;;4.20;1.40;;;;;;;;;;5886833;28;20059;-68
2024/04/05 16:46:57;;;;;;;2.45;1.77;;;;;;;;;;5887033;28;20048;-68
2024/04/05 16:49:47;;;;;;;3.90;2.15;;;;;;;;;;5886565;28;20041;-68
2024/04/05 16:52:37;;;;;;;3.33;1.23;;;;;;;;;;5886213;28;20072;-68
2024/04/05 16:55:27;;;;;;;6.35;1.95;;;;;;;;;;5886351;28;20071;-68
2024/04/05 16:58:18;;;;;;;1.75;1.10;;;;;;;;;;5886050;28;20092;-68
2024/04/05 17:01:09;;;;;;;2.65;1.65;;;;;;;;;;5869491;28;20048;-68
2024/04/05 17:04:02;;;;;;;1.77;1.25;;;;;;;;;;5886508;28;20071;-68